sensor_id;sensor_type;location;lat;lon;timestamp;pressure;altitude;pressure_sealevel;temperature;humidity
63700;BME280;49845;47.130;142.766;2023-04-01T00:01:53;101046.84;;;0.58;100.00
63700;BME280;49845;47.130;142.766;2023-04-01T00:04:24;101063.81;;;0.53;100.00
63700;BME280;49845;47.130;142.766;2023-04-01T00:06:59;101078.56;;;0.58;100.00
63700;BME280;49845;47.130;142.766;2023-04-01T00:09:30;101058.97;;;0.62;100.00
63700;BME280;49845;47.130;142.766;2023-04-01T00:12:01;101076.28;;;0.66;100.00
63700;BME280;49845;47.130;142.766;2023-04-01T00:14:31;101065.53;;;0.54;100.00
63700;BME280;49845;47.130;142.766;2023-04-01T00:17:03;101075.72;;;0.51;100.00
63700;BME280;49845;47.130;142.766;2023-04-01T00:19:33;101077.72;;;0.58;100.00
63700;BME280;49845;47.130;142.766;2023-04-01T00:22:06;101081.06;;;0.57;100.00
63700;BME280;49845;47.130;142.766;2023-04-01T00:24:39;101084.59;;;0.59;100.00
63700;BME280;49845;47.130;142.766;2023-04-01T00:27:10;101052.72;;;0.31;100.00
63700;BME280;49845;47.130;142.766;2023-04-01T00:29:42;101054.44;;;0.32;100.00
63700;BME280;49845;47.130;142.766;2023-04-01T00:32:13;101086.31;;;0.60;100.00
63700;BME280;49845;47.130;142.766;2023-04-01T00:34:44;101083.91;;;0.63;100.00
63700;BME280;49845;47.130;142.766;2023-04-01T00:37:16;101093.34;;;0.64;100.00
63700;BME280;49845;47.130;142.766;2023-04-01T00:39:50;101088.09;;;0.61;100.00
63700;BME280;49845;47.130;142.766;2023-04-01T00:42:21;100999.56;;;0.08;100.00
63700;BME280;49845;47.130;142.766;2023-04-01T00:44:52;101096.88;;;0.66;100.00
63700;BME280;49845;47.130;142.766;2023-04-01T00:47:25;101103.88;;;0.70;100.00
63700;BME280;49845;47.130;142.766;2023-04-01T00:49:56;101118.59;;;0.74;100.00
63700;BME280;49845;47.130;142.766;2023-04-01T00:52:29;101126.19;;;0.71;100.00
63700;BME280;49845;47.130;142.766;2023-04-01T00:55:00;101120.94;;;0.68;100.00
63700;BME280;49845;47.130;142.766;2023-04-01T00:57:36;101126.00;;;0.65;100.00
63700;BME280;49845;47.130;142.766;2023-04-01T01:00:12;101133.53;;;0.60;100.00
63700;BME280;49845;47.130;142.766;2023-04-01T01:02:46;101118.72;;;0.55;100.00
63700;BME280;49845;47.130;142.766;2023-04-01T01:05:22;101139.53;;;0.61;100.00
63700;BME280;49845;47.130;142.766;2023-04-01T01:08:02;101132.28;;;0.51;100.00
63700;BME280;49845;47.130;142.766;2023-04-01T01:10:36;101144.31;;;0.52;100.00
63700;BME280;49845;47.130;142.766;2023-04-01T01:13:13;101115.56;;;0.17;100.00
63700;BME280;49845;47.130;142.766;2023-04-01T01:15:49;101142.22;;;0.41;100.00
63700;BME280;49845;47.130;142.766;2023-04-01T01:18:27;101144.09;;;0.46;100.00
63700;BME280;49845;47.130;142.766;2023-04-01T01:21:30;101142.22;;;0.41;100.00
63700;BME280;49845;47.130;142.766;2023-04-01T01:24:39;101149.94;;;0.41;100.00
63700;BME280;49845;47.130;142.766;2023-04-01T01:27:16;101137.84;;;0.39;100.00
63700;BME280;49845;47.130;142.766;2023-04-01T01:30:00;101159.28;;;0.39;100.00
63700;BME280;49845;47.130;142.766;2023-04-01T01:32:48;101159.41;;;0.42;100.00
63700;BME280;49845;47.130;142.766;2023-04-01T01:35:26;101152.88;;;0.51;100.00
63700;BME280;49845;47.130;142.766;2023-04-01T01:38:00;101156.13;;;0.47;100.00
63700;BME280;49845;47.130;142.766;2023-04-01T01:40:33;101152.38;;;0.38;100.00
63700;BME280;49845;47.130;142.766;2023-04-01T01:43:06;101158.47;;;0.40;100.00
63700;BME280;49845;47.130;142.766;2023-04-01T01:45:42;101107.78;;;0.15;100.00
63700;BME280;49845;47.130;142.766;2023-04-01T01:48:14;101172.59;;;0.52;100.00
63700;BME280;49845;47.130;142.766;2023-04-01T01:50:49;101156.25;;;0.50;100.00
63700;BME280;49845;47.130;142.766;2023-04-01T01:53:20;101179.16;;;0.66;100.00
63700;BME280;49845;47.130;142.766;2023-04-01T01:55:51;101182.91;;;0.74;100.00
63700;BME280;49845;47.130;142.766;2023-04-01T01:58:26;101182.22;;;0.78;100.00
63700;BME280;49845;47.130;142.766;2023-04-01T02:01:01;101168.41;;;0.76;100.00
63700;BME280;49845;47.130;142.766;2023-04-01T02:03:35;101183.00;;;0.77;100.00
63700;BME280;49845;47.130;142.766;2023-04-01T02:06:10;101190.41;;;0.91;100.00
63700;BME280;49845;47.130;142.766;2023-04-01T02:08:43;101153.56;;;0.69;100.00
63700;BME280;49845;47.130;142.766;2023-04-01T02:11:17;101183.84;;;0.99;100.00
63700;BME280;49845;47.130;142.766;2023-04-01T02:13:51;101163.03;;;0.93;100.00
63700;BME280;49845;47.130;142.766;2023-04-01T02:16:26;101202.44;;;0.92;100.00
63700;BME280;49845;47.130;142.766;2023-04-01T02:18:58;101192.31;;;0.74;100.00
63700;BME280;49845;47.130;142.766;2023-04-01T02:21:32;101190.16;;;0.84;100.00
63700;BME280;49845;47.130;142.766;2023-04-01T02:24:07;101178.34;;;0.90;100.00
63700;BME280;49845;47.130;142.766;2023-04-01T02:26:38;101197.53;;;0.98;100.00
63700;BME280;49845;47.130;142.766;2023-04-01T02:29:09;101206.63;;;0.90;100.00
63700;BME280;49845;47.130;142.766;2023-04-01T02:31:42;101211.38;;;0.79;100.00
63700;BME280;49845;47.130;142.766;2023-04-01T02:34:13;101215.19;;;0.66;100.00
63700;BME280;49845;47.130;142.766;2023-04-01T02:36:47;101216.00;;;0.65;100.00
63700;BME280;49845;47.130;142.766;2023-04-01T02:39:18;101218.09;;;0.53;100.00
63700;BME280;49845;47.130;142.766;2023-04-01T02:41:49;101221.34;;;0.49;100.00
63700;BME280;49845;47.130;142.766;2023-04-01T02:44:20;101225.25;;;0.39;100.00
63700;BME280;49845;47.130;142.766;2023-04-01T02:46:50;101230.66;;;0.24;100.00
63700;BME280;49845;47.130;142.766;2023-04-01T02:49:21;101233.66;;;0.14;100.00
63700;BME280;49845;47.130;142.766;2023-04-01T02:51:54;101216.75;;;-0.02;100.00
63700;BME280;49845;47.130;142.766;2023-04-01T02:54:24;101229.78;;;0.03;100.00
63700;BME280;49845;47.130;142.766;2023-04-01T02:56:55;101229.63;;;-0.01;100.00
63700;BME280;49845;47.130;142.766;2023-04-01T02:59:26;101244.69;;;-0.10;100.00
63700;BME280;49845;47.130;142.766;2023-04-01T03:01:56;101245.56;;;-0.09;100.00
63700;BME280;49845;47.130;142.766;2023-04-01T03:04:27;101238.50;;;-0.13;100.00
63700;BME280;49845;47.130;142.766;2023-04-01T03:06:59;101239.13;;;-0.19;100.00
63700;BME280;49845;47.130;142.766;2023-04-01T03:09:30;101259.81;;;-0.16;100.00
63700;BME280;49845;47.130;142.766;2023-04-01T03:12:00;101244.28;;;-0.19;100.00
63700;BME280;49845;47.130;142.766;2023-04-01T03:14:31;101246.00;;;-0.18;100.00
63700;BME280;49845;47.130;142.766;2023-04-01T03:17:01;101167.44;;;-0.74;100.00
63700;BME280;49845;47.130;142.766;2023-04-01T03:19:32;101255.28;;;-0.22;100.00
63700;BME280;49845;47.130;142.766;2023-04-01T03:22:04;101246.56;;;-0.25;100.00
63700;BME280;49845;47.130;142.766;2023-04-01T03:24:35;101212.94;;;-0.51;100.00
63700;BME280;49845;47.130;142.766;2023-04-01T03:27:06;101236.56;;;-0.38;100.00
63700;BME280;49845;47.130;142.766;2023-04-01T03:29:36;101237.19;;;-0.44;100.00
63700;BME280;49845;47.130;142.766;2023-04-01T03:32:07;101241.31;;;-0.48;100.00
63700;BME280;49845;47.130;142.766;2023-04-01T03:34:38;101237.81;;;-0.50;100.00
63700;BME280;49845;47.130;142.766;2023-04-01T03:37:10;101252.53;;;-0.46;100.00
63700;BME280;49845;47.130;142.766;2023-04-01T03:39:43;101239.81;;;-0.43;100.00
63700;BME280;49845;47.130;142.766;2023-04-01T03:42:14;101247.69;;;-0.39;100.00
63700;BME280;49845;47.130;142.766;2023-04-01T03:44:45;101257.00;;;-0.41;100.00
63700;BME280;49845;47.130;142.766;2023-04-01T03:47:15;101252.81;;;-0.39;100.00
63700;BME280;49845;47.130;142.766;2023-04-01T03:49:46;101257.00;;;-0.41;100.00
63700;BME280;49845;47.130;142.766;2023-04-01T03:52:18;101261.84;;;-0.48;100.00
63700;BME280;49845;47.130;142.766;2023-04-01T03:54:49;101234.72;;;-0.62;100.00
63700;BME280;49845;47.130;142.766;2023-04-01T03:57:19;101268.63;;;-0.50;100.00
63700;BME280;49845;47.130;142.766;2023-04-01T03:59:50;101270.50;;;-0.46;100.00
63700;BME280;49845;47.130;142.766;2023-04-01T04:02:20;101270.28;;;-0.50;100.00
63700;BME280;49845;47.130;142.766;2023-04-01T04:04:51;101280.63;;;-0.49;100.00
63700;BME280;49845;47.130;142.766;2023-04-01T04:07:24;101285.91;;;-0.46;100.00
63700;BME280;49845;47.130;142.766;2023-04-01T04:09:54;101279.28;;;-0.40;100.00
63700;BME280;49845;47.130;142.766;2023-04-01T04:12:25;101283.53;;;-0.41;100.00
63700;BME280;49845;47.130;142.766;2023-04-01T04:14:56;101282.94;;;-0.35;100.00
63700;BME280;49845;47.130;142.766;2023-04-01T04:17:29;101284.84;;;-0.31;100.00
63700;BME280;49845;47.130;142.766;2023-04-01T04:20:00;101287.94;;;-0.38;100.00
63700;BME280;49845;47.130;142.766;2023-04-01T04:22:32;101294.69;;;-0.40;100.00
63700;BME280;49845;47.130;142.766;2023-04-01T04:25:03;101281.63;;;-0.45;100.00
63700;BME280;49845;47.130;142.766;2023-04-01T04:27:34;101292.81;;;-0.45;100.00
63700;BME280;49845;47.130;142.766;2023-04-01T04:30:06;101286.19;;;-0.39;100.00
63700;BME280;49845;47.130;142.766;2023-04-01T04:32:38;101289.72;;;-0.37;100.00
63700;BME280;49845;47.130;142.766;2023-04-01T04:35:10;101301.84;;;-0.33;100.00
63700;BME280;49845;47.130;142.766;2023-04-01T04:37:42;101302.00;;;-0.30;100.00
63700;BME280;49845;47.130;142.766;2023-04-01T04:40:13;101293.50;;;-0.29;100.00
63700;BME280;49845;47.130;142.766;2023-04-01T04:42:43;101300.25;;;-0.31;100.00
63700;BME280;49845;47.130;142.766;2023-04-01T04:45:14;101300.13;;;-0.34;100.00
63700;BME280;49845;47.130;142.766;2023-04-01T04:47:45;101286.44;;;-0.33;100.00
63700;BME280;49845;47.130;142.766;2023-04-01T04:50:15;101298.75;;;-0.26;100.00
63700;BME280;49845;47.130;142.766;2023-04-01T04:52:47;101292.25;;;-0.18;100.00
63700;BME280;49845;47.130;142.766;2023-04-01T04:55:18;101293.53;;;-0.08;100.00
63700;BME280;49845;47.130;142.766;2023-04-01T04:57:49;101292.44;;;0.06;100.00
63700;BME280;49845;47.130;142.766;2023-04-01T05:00:19;101292.47;;;0.27;100.00
63700;BME280;49845;47.130;142.766;2023-04-01T05:02:50;101296.25;;;0.56;100.00
63700;BME280;49845;47.130;142.766;2023-04-01T05:05:21;101219.13;;;0.35;100.00
63700;BME280;49845;47.130;142.766;2023-04-01T05:08:00;101287.03;;;1.05;100.00
63700;BME280;49845;47.130;142.766;2023-04-01T05:10:33;101287.59;;;1.43;100.00
63700;BME280;49845;47.130;142.766;2023-04-01T05:13:03;101271.88;;;1.59;99.23
63700;BME280;49845;47.130;142.766;2023-04-01T05:15:35;101275.72;;;1.70;98.19
63700;BME280;49845;47.130;142.766;2023-04-01T05:18:05;101259.22;;;1.65;98.11
63700;BME280;49845;47.130;142.766;2023-04-01T05:20:36;101265.19;;;1.40;97.70
63700;BME280;49845;47.130;142.766;2023-04-01T05:23:09;101272.38;;;1.26;97.95
63700;BME280;49845;47.130;142.766;2023-04-01T05:25:39;101279.34;;;1.06;98.42
63700;BME280;49845;47.130;142.766;2023-04-01T05:28:10;101273.69;;;1.15;99.03
63700;BME280;49845;47.130;142.766;2023-04-01T05:30:41;101272.03;;;1.17;98.84
63700;BME280;49845;47.130;142.766;2023-04-01T05:33:12;101239.28;;;0.91;98.57
63700;BME280;49845;47.130;142.766;2023-04-01T05:35:43;101274.84;;;1.01;97.64
63700;BME280;49845;47.130;142.766;2023-04-01T05:38:15;101274.59;;;0.95;98.92
63700;BME280;49845;47.130;142.766;2023-04-01T05:40:46;101275.28;;;0.68;98.98
63700;BME280;49845;47.130;142.766;2023-04-01T05:43:18;101262.16;;;0.62;99.58
63700;BME280;49845;47.130;142.766;2023-04-01T05:45:52;101237.28;;;0.19;99.56
63700;BME280;49845;47.130;142.766;2023-04-01T05:48:23;101271.78;;;0.66;100.00
63700;BME280;49845;47.130;142.766;2023-04-01T05:50:55;101299.31;;;0.69;99.63
63700;BME280;49845;47.130;142.766;2023-04-01T05:53:27;101301.38;;;0.56;99.87
63700;BME280;49845;47.130;142.766;2023-04-01T05:56:02;101283.31;;;0.55;100.00
63700;BME280;49845;47.130;142.766;2023-04-01T05:58:33;101313.41;;;0.57;100.00
63700;BME280;49845;47.130;142.766;2023-04-01T06:01:04;101234.25;;;-0.13;100.00
63700;BME280;49845;47.130;142.766;2023-04-01T06:03:43;101323.31;;;0.27;100.00
63700;BME280;49845;47.130;142.766;2023-04-01T06:06:15;101315.91;;;0.14;100.00
63700;BME280;49845;47.130;142.766;2023-04-01T06:08:49;101327.00;;;-0.07;100.00
63700;BME280;49845;47.130;142.766;2023-04-01T06:11:31;101304.16;;;-0.39;100.00
63700;BME280;49845;47.130;142.766;2023-04-01T06:14:12;101327.66;;;-0.30;100.00
63700;BME280;49845;47.130;142.766;2023-04-01T06:16:57;101349.16;;;-0.28;100.00
63700;BME280;49845;47.130;142.766;2023-04-01T06:19:40;101342.00;;;-0.35;100.00
63700;BME280;49845;47.130;142.766;2023-04-01T06:22:32;101348.69;;;-0.39;100.00
63700;BME280;49845;47.130;142.766;2023-04-01T06:25:24;101365.53;;;-0.26;100.00
63700;BME280;49845;47.130;142.766;2023-04-01T06:28:13;101353.75;;;-0.40;100.00
63700;BME280;49845;47.130;142.766;2023-04-01T06:30:58;101360.13;;;-0.32;100.00
63700;BME280;49845;47.130;142.766;2023-04-01T06:33:42;101367.94;;;-0.49;100.00
63700;BME280;49845;47.130;142.766;2023-04-01T06:36:30;101384.94;;;-0.51;100.00
63700;BME280;49845;47.130;142.766;2023-04-01T06:42:15;101402.78;;;-0.54;100.00
63700;BME280;49845;47.130;142.766;2023-04-01T06:44:56;101401.84;;;-0.56;100.00
63700;BME280;49845;47.130;142.766;2023-04-01T06:47:41;101394.50;;;-0.66;100.00
63700;BME280;49845;47.130;142.766;2023-04-01T06:50:21;101382.06;;;-0.76;100.00
63700;BME280;49845;47.130;142.766;2023-04-01T06:53:00;101402.44;;;-0.79;100.00
63700;BME280;49845;47.130;142.766;2023-04-01T06:55:38;101405.53;;;-0.87;100.00
63700;BME280;49845;47.130;142.766;2023-04-01T06:58:20;101388.06;;;-0.94;100.00
63700;BME280;49845;47.130;142.766;2023-04-01T07:00:53;101413.88;;;-0.91;100.00
63700;BME280;49845;47.130;142.766;2023-04-01T07:03:30;101368.28;;;-1.14;100.00
63700;BME280;49845;47.130;142.766;2023-04-01T07:06:04;101422.66;;;-0.85;100.00
63700;BME280;49845;47.130;142.766;2023-04-01T07:08:36;101417.53;;;-0.85;100.00
63700;BME280;49845;47.130;142.766;2023-04-01T07:11:11;101422.38;;;-0.92;100.00
63700;BME280;49845;47.130;142.766;2023-04-01T07:13:51;101386.88;;;-1.18;100.00
63700;BME280;49845;47.130;142.766;2023-04-01T07:16:27;101429.13;;;-0.94;100.00
63700;BME280;49845;47.130;142.766;2023-04-01T07:19:04;101426.56;;;-0.94;100.00
63700;BME280;49845;47.130;142.766;2023-04-01T07:21:41;101427.94;;;-1.00;100.00
63700;BME280;49845;47.130;142.766;2023-04-01T07:24:20;101437.63;;;-0.95;100.00
63700;BME280;49845;47.130;142.766;2023-04-01T07:26:54;101439.38;;;-0.94;100.00
63700;BME280;49845;47.130;142.766;2023-04-01T07:29:27;101434.09;;;-0.97;100.00
63700;BME280;49845;47.130;142.766;2023-04-01T07:32:14;101441.06;;;-0.94;100.00
63700;BME280;49845;47.130;142.766;2023-04-01T07:34:56;101434.97;;;-0.96;100.00
63700;BME280;49845;47.130;142.766;2023-04-01T07:37:34;101439.25;;;-0.97;100.00
63700;BME280;49845;47.130;142.766;2023-04-01T07:40:17;101442.44;;;-1.01;100.00
63700;BME280;49845;47.130;142.766;2023-04-01T07:43:05;101445.97;;;-0.99;100.00
63700;BME280;49845;47.130;142.766;2023-04-01T07:45:47;101437.31;;;-1.01;100.00
63700;BME280;49845;47.130;142.766;2023-04-01T07:48:23;101453.03;;;-0.95;100.00
63700;BME280;49845;47.130;142.766;2023-04-01T07:51:02;101452.84;;;-0.98;100.00
63700;BME280;49845;47.130;142.766;2023-04-01T07:53:36;101452.63;;;-1.02;100.00
63700;BME280;49845;47.130;142.766;2023-04-01T07:56:11;101454.31;;;-1.03;100.00
63700;BME280;49845;47.130;142.766;2023-04-01T07:58:53;101454.50;;;-1.00;100.00
63700;BME280;49845;47.130;142.766;2023-04-01T08:01:40;101431.56;;;-1.13;100.00
63700;BME280;49845;47.130;142.766;2023-04-01T08:04:39;101445.06;;;-1.17;100.00
63700;BME280;49845;47.130;142.766;2023-04-01T08:07:18;101448.75;;;-1.12;100.00
63700;BME280;49845;47.130;142.766;2023-04-01T08:09:58;101461.22;;;-1.02;100.00
63700;BME280;49845;47.130;142.766;2023-04-01T08:12:42;101456.09;;;-1.02;100.00
63700;BME280;49845;47.130;142.766;2023-04-01T08:15:25;101441.97;;;-1.10;100.00
63700;BME280;49845;47.130;142.766;2023-04-01T08:18:11;101431.28;;;-1.19;100.00
63700;BME280;49845;47.130;142.766;2023-04-01T08:20:51;101412.06;;;-1.27;100.00
63700;BME280;49845;47.130;142.766;2023-04-01T08:23:26;101454.31;;;-1.03;100.00
63700;BME280;49845;47.130;142.766;2023-04-01T08:26:04;101431.56;;;-1.13;100.00
63700;BME280;49845;47.130;142.766;2023-04-01T08:28:40;101462.97;;;-1.01;100.00
63700;BME280;49845;47.130;142.766;2023-04-01T08:31:16;101464.56;;;-1.03;100.00
63700;BME280;49845;47.130;142.766;2023-04-01T08:33:53;101474.84;;;-1.03;100.00
63700;BME280;49845;47.130;142.766;2023-04-01T08:36:29;101477.16;;;-1.08;100.00
63700;BME280;49845;47.130;142.766;2023-04-01T08:39:05;101446.06;;;-1.32;100.00
63700;BME280;49845;47.130;142.766;2023-04-01T08:45:03;101470.88;;;-1.14;100.00
63700;BME280;49845;47.130;142.766;2023-04-01T08:47:50;101450.13;;;-1.35;100.00
63700;BME280;49845;47.130;142.766;2023-04-01T08:53:55;101494.59;;;-1.18;100.00
63700;BME280;49845;47.130;142.766;2023-04-01T08:56:34;101506.16;;;-1.26;100.00
63700;BME280;49845;47.130;142.766;2023-04-01T08:59:37;101513.66;;;-1.13;100.00
63700;BME280;49845;47.130;142.766;2023-04-01T09:02:51;101500.59;;;-1.18;100.00
63700;BME280;49845;47.130;142.766;2023-04-01T09:05:43;101505.66;;;-1.19;100.00
63700;BME280;49845;47.130;142.766;2023-04-01T09:08:31;101514.22;;;-1.19;100.00
63700;BME280;49845;47.130;142.766;2023-04-01T09:11:26;101511.75;;;-1.17;100.00
63700;BME280;49845;47.130;142.766;2023-04-01T09:14:24;101522.06;;;-1.16;100.00
63700;BME280;49845;47.130;142.766;2023-04-01T09:20:25;101524.63;;;-1.16;100.00
63700;BME280;49845;47.130;142.766;2023-04-01T09:26:13;101530.66;;;-1.15;100.00
63700;BME280;49845;47.130;142.766;2023-04-01T09:29:00;101531.94;;;-1.23;100.00
63700;BME280;49845;47.130;142.766;2023-04-01T09:31:50;101549.56;;;-1.13;100.00
63700;BME280;49845;47.130;142.766;2023-04-01T09:34:52;101557.91;;;-1.17;100.00
63700;BME280;49845;47.130;142.766;2023-04-01T09:37:41;101558.84;;;-1.15;100.00
63700;BME280;49845;47.130;142.766;2023-04-01T09:40:24;101553.56;;;-1.18;100.00
63700;BME280;49845;47.130;142.766;2023-04-01T09:43:27;101556.28;;;-1.15;100.00
63700;BME280;49845;47.130;142.766;2023-04-01T09:46:25;101562.38;;;-1.13;100.00
63700;BME280;49845;47.130;142.766;2023-04-01T09:49:37;101568.34;;;-1.14;100.00
63700;BME280;49845;47.130;142.766;2023-04-01T09:52:31;101566.41;;;-1.18;100.00
63700;BME280;49845;47.130;142.766;2023-04-01T09:55:17;101560.31;;;-1.20;100.00
63700;BME280;49845;47.130;142.766;2023-04-01T09:58:13;101574.25;;;-1.15;100.00
63700;BME280;49845;47.130;142.766;2023-04-01T10:01:17;101582.66;;;-1.18;100.00
63700;BME280;49845;47.130;142.766;2023-04-01T10:04:11;101587.72;;;-1.19;100.00
63700;BME280;49845;47.130;142.766;2023-04-01T10:07:11;101595.44;;;-1.19;100.00
63700;BME280;49845;47.130;142.766;2023-04-01T10:16:25;101582.53;;;-1.37;100.00
63700;BME280;49845;47.130;142.766;2023-04-01T10:19:25;101593.97;;;-1.31;100.00
63700;BME280;49845;47.130;142.766;2023-04-01T10:22:17;101592.22;;;-1.32;100.00
63700;BME280;49845;47.130;142.766;2023-04-01T10:25:24;101597.91;;;-1.37;100.00
63700;BME280;49845;47.130;142.766;2023-04-01T10:28:30;101596.13;;;-1.38;100.00
63700;BME280;49845;47.130;142.766;2023-04-01T10:31:37;101598.78;;;-1.37;100.00
63700;BME280;49845;47.130;142.766;2023-04-01T10:34:47;101596.06;;;-1.40;100.00
63700;BME280;49845;47.130;142.766;2023-04-01T10:41:04;101581.78;;;-1.51;100.00
63700;BME280;49845;47.130;142.766;2023-04-01T10:44:05;101600.28;;;-1.40;100.00
63700;BME280;49845;47.130;142.766;2023-04-01T10:50:24;101604.22;;;-1.47;100.00
63700;BME280;49845;47.130;142.766;2023-04-01T10:53:31;101597.31;;;-1.48;100.00
63700;BME280;49845;47.130;142.766;2023-04-01T10:56:34;101600.69;;;-1.49;100.00
63700;BME280;49845;47.130;142.766;2023-04-01T10:59:25;101604.94;;;-1.49;100.00
63700;BME280;49845;47.130;142.766;2023-04-01T11:08:50;101611.50;;;-1.55;100.00
63700;BME280;49845;47.130;142.766;2023-04-01T11:12:14;101613.81;;;-1.59;100.00
63700;BME280;49845;47.130;142.766;2023-04-01T11:24:51;101617.03;;;-1.78;100.00
63700;BME280;49845;47.130;142.766;2023-04-01T11:27:45;101613.69;;;-1.77;100.00
63700;BME280;49845;47.130;142.766;2023-04-01T11:30:30;101608.75;;;-1.89;100.00
63700;BME280;49845;47.130;142.766;2023-04-01T11:33:03;101617.75;;;-1.81;100.00
63700;BME280;49845;47.130;142.766;2023-04-01T11:36:16;101620.16;;;-1.84;100.00
63700;BME280;49845;47.130;142.766;2023-04-01T11:39:15;101622.16;;;-1.78;100.00
63700;BME280;49845;47.130;142.766;2023-04-01T11:42:01;101610.69;;;-1.85;100.00
63700;BME280;49845;47.130;142.766;2023-04-01T11:44:53;101615.31;;;-1.94;100.00
63700;BME280;49845;47.130;142.766;2023-04-01T11:50:52;101624.59;;;-1.96;100.00
63700;BME280;49845;47.130;142.766;2023-04-01T11:53:36;101543.84;;;-2.50;100.00
63700;BME280;49845;47.130;142.766;2023-04-01T11:56:24;101614.47;;;-2.09;100.00
63700;BME280;49845;47.130;142.766;2023-04-01T12:02:03;101608.63;;;-2.22;100.00
63700;BME280;49845;47.130;142.766;2023-04-01T12:04:58;101629.28;;;-2.04;100.00
63700;BME280;49845;47.130;142.766;2023-04-01T12:08:09;101636.34;;;-2.00;100.00
63700;BME280;49845;47.130;142.766;2023-04-01T12:10:48;101626.63;;;-2.05;100.00
63700;BME280;49845;47.130;142.766;2023-04-01T12:13:32;101647.09;;;-2.05;100.00
63700;BME280;49845;47.130;142.766;2023-04-01T12:16:32;101643.56;;;-2.07;100.00
63700;BME280;49845;47.130;142.766;2023-04-01T12:19:15;101635.72;;;-2.10;100.00
63700;BME280;49845;47.130;142.766;2023-04-01T12:22:03;101638.00;;;-2.15;100.00
63700;BME280;49845;47.130;142.766;2023-04-01T12:24:56;101628.75;;;-2.13;100.00
63700;BME280;49845;47.130;142.766;2023-04-01T12:27:40;101634.75;;;-2.12;100.00
63700;BME280;49845;47.130;142.766;2023-04-01T12:30:33;101647.28;;;-2.02;100.00
63700;BME280;49845;47.130;142.766;2023-04-01T12:33:29;101654.34;;;-1.98;100.00
63700;BME280;49845;47.130;142.766;2023-04-01T12:36:18;101661.06;;;-2.00;100.00
63700;BME280;49845;47.130;142.766;2023-04-01T12:39:08;101658.50;;;-2.00;100.00
63700;BME280;49845;47.130;142.766;2023-04-01T12:41:51;101596.47;;;-2.41;100.00
63700;BME280;49845;47.130;142.766;2023-04-01T12:44:44;101661.50;;;-2.07;100.00
63700;BME280;49845;47.130;142.766;2023-04-01T12:50:37;101658.28;;;-2.20;100.00
63700;BME280;49845;47.130;142.766;2023-04-01T12:53:25;101655.22;;;-2.12;100.00
63700;BME280;49845;47.130;142.766;2023-04-01T12:56:04;101663.91;;;-2.10;100.00
63700;BME280;49845;47.130;142.766;2023-04-01T12:58:58;101655.88;;;-2.17;100.00
63700;BME280;49845;47.130;142.766;2023-04-01T13:01:55;101656.47;;;-2.21;100.00
63700;BME280;49845;47.130;142.766;2023-04-01T13:08:14;101670.25;;;-2.19;100.00
63700;BME280;49845;47.130;142.766;2023-04-01T13:11:13;101631.59;;;-2.38;100.00
63700;BME280;49845;47.130;142.766;2023-04-01T13:14:16;101676.88;;;-2.22;100.00
63700;BME280;49845;47.130;142.766;2023-04-01T13:17:04;101669.38;;;-2.34;100.00
63700;BME280;49845;47.130;142.766;2023-04-01T13:19:45;101672.91;;;-2.32;100.00
63700;BME280;49845;47.130;142.766;2023-04-01T13:22:45;101676.25;;;-2.33;100.00
63700;BME280;49845;47.130;142.766;2023-04-01T13:25:28;101628.94;;;-2.54;100.00
63700;BME280;49845;47.130;142.766;2023-04-01T13:28:14;101674.84;;;-2.28;100.00
63700;BME280;49845;47.130;142.766;2023-04-01T13:30:52;101675.00;;;-2.25;100.00
63700;BME280;49845;47.130;142.766;2023-04-01T13:33:30;101669.38;;;-2.34;100.00
63700;BME280;49845;47.130;142.766;2023-04-01T13:36:15;101679.97;;;-2.28;100.00
63700;BME280;49845;47.130;142.766;2023-04-01T13:39:01;101687.91;;;-2.23;100.00
63700;BME280;49845;47.130;142.766;2023-04-01T13:41:55;101684.75;;;-2.19;100.00
63700;BME280;49845;47.130;142.766;2023-04-01T13:44:35;101685.25;;;-2.25;100.00
63700;BME280;49845;47.130;142.766;2023-04-01T13:47:41;101683.50;;;-2.26;100.00
63700;BME280;49845;47.130;142.766;2023-04-01T13:50:37;101687.66;;;-2.28;100.00
63700;BME280;49845;47.130;142.766;2023-04-01T13:53:28;101688.06;;;-2.35;100.00
63700;BME280;49845;47.130;142.766;2023-04-01T13:56:24;101682.00;;;-2.37;100.00
63700;BME280;49845;47.130;142.766;2023-04-01T14:02:49;101691.44;;;-2.36;100.00
63700;BME280;49845;47.130;142.766;2023-04-01T14:05:54;101693.03;;;-2.38;100.00
63700;BME280;49845;47.130;142.766;2023-04-01T14:09:27;101697.38;;;-2.37;100.00
63700;BME280;49845;47.130;142.766;2023-04-01T14:12:41;101691.28;;;-2.39;100.00
63700;BME280;49845;47.130;142.766;2023-04-01T14:15:46;101691.44;;;-2.36;100.00
63700;BME280;49845;47.130;142.766;2023-04-01T14:18:45;101693.19;;;-2.35;100.00
63700;BME280;49845;47.130;142.766;2023-04-01T14:21:41;101698.53;;;-2.32;100.00
63700;BME280;49845;47.130;142.766;2023-04-01T14:24:29;101692.00;;;-2.27;100.00
63700;BME280;49845;47.130;142.766;2023-04-01T14:30:45;101688.97;;;-2.34;100.00
63700;BME280;49845;47.130;142.766;2023-04-01T14:33:29;101694.81;;;-2.37;100.00
63700;BME280;49845;47.130;142.766;2023-04-01T14:36:34;101693.81;;;-2.39;100.00
63700;BME280;49845;47.130;142.766;2023-04-01T14:39:46;101678.53;;;-2.52;100.00